createdAt,value
2023-05-10T00:02:22.797Z,90.57
2023-05-10T00:04:50.252Z,90.54
2023-05-10T00:07:18.581Z,91.59
2023-05-10T00:09:45.891Z,91.22
2023-05-10T00:12:13.455Z,91.55
2023-05-10T00:14:41.095Z,91.90
2023-05-10T00:17:08.512Z,91.39
2023-05-10T00:19:35.899Z,91.10
2023-05-10T00:22:03.327Z,91.39
2023-05-10T00:24:31.163Z,92.86
2023-05-10T00:26:58.475Z,92.51
2023-05-10T00:29:25.814Z,92.64
2023-05-10T00:31:53.191Z,90.58
2023-05-10T00:34:20.634Z,90.49
2023-05-10T00:36:48.047Z,92.58
2023-05-10T00:39:15.601Z,92.53
2023-05-10T00:41:42.964Z,92.38
2023-05-10T00:44:10.336Z,89.34
2023-05-10T00:46:37.836Z,89.29
2023-05-10T00:49:05.535Z,88.83
2023-05-10T00:51:33.364Z,87.40
2023-05-10T00:54:00.874Z,87.52
2023-05-10T00:56:30.646Z,86.95
2023-05-10T00:58:58.280Z,84.89
2023-05-10T01:01:26.247Z,86.30
2023-05-10T01:03:55.504Z,85.66
2023-05-10T01:06:23.166Z,85.32
2023-05-10T01:08:51.306Z,84.85
2023-05-10T01:11:18.949Z,85.12
2023-05-10T01:13:52.018Z,84.67
2023-05-10T01:16:19.489Z,84.04
2023-05-10T01:18:47.023Z,85.81
2023-05-10T01:21:28.466Z,86.11
2023-05-10T01:24:10.685Z,85.73
2023-05-10T01:26:55.155Z,84.90
2023-05-10T01:29:31.503Z,85.92
2023-05-10T01:32:07.951Z,86.59
2023-05-10T01:34:53.331Z,87.13
2023-05-10T01:37:34.482Z,87.12
2023-05-10T01:40:14.603Z,86.45
2023-05-10T01:42:51.022Z,86.72
2023-05-10T01:45:29.474Z,88.12
2023-05-10T01:48:07.779Z,86.97
2023-05-10T01:50:37.641Z,87.53
2023-05-10T01:53:08.983Z,87.76
2023-05-10T01:55:47.588Z,89.72
2023-05-10T01:58:21.272Z,91.57
2023-05-10T02:00:50.834Z,90.67
2023-05-10T02:03:22.234Z,92.83
2023-05-10T02:05:51.716Z,95.33
2023-05-10T02:08:20.408Z,96.40
2023-05-10T02:10:50.361Z,94.03
2023-05-10T02:13:19.198Z,97.34
2023-05-10T02:15:50.691Z,96.29
2023-05-10T02:18:19.115Z,98.28
2023-05-10T02:20:47.905Z,97.50
2023-05-10T02:23:18.736Z,97.98
2023-05-10T02:25:47.101Z,98.75
2023-05-10T02:28:16.561Z,99.91
2023-05-10T02:30:44.376Z,99.21
2023-05-10T02:33:12.952Z,99.89
2023-05-10T02:35:41.188Z,99.23
2023-05-10T02:38:09.749Z,98.79
2023-05-10T02:40:38.189Z,99.84
2023-05-10T02:43:07.992Z,100.00
2023-05-10T02:45:39.919Z,100.00
2023-05-10T02:48:07.812Z,100.00
2023-05-10T02:50:38.346Z,99.60
2023-05-10T02:53:12.692Z,98.57
2023-05-10T02:55:43.209Z,99.50
2023-05-10T02:58:11.209Z,99.79
2023-05-10T03:00:38.764Z,100.00
2023-05-10T03:03:06.301Z,98.43
2023-05-10T03:05:34.271Z,97.74
2023-05-10T03:08:05.154Z,97.59
2023-05-10T03:10:34.930Z,97.50
2023-05-10T03:13:22.957Z,97.62
2023-05-10T03:15:59.139Z,97.59
2023-05-10T03:18:58.845Z,96.25
2023-05-10T03:21:30.936Z,95.73
2023-05-10T03:24:08.035Z,95.08
2023-05-10T03:26:36.952Z,93.89
2023-05-10T03:29:06.517Z,93.82
2023-05-10T03:31:34.263Z,93.16
2023-05-10T03:34:02.339Z,94.04
2023-05-10T03:36:29.879Z,93.10
2023-05-10T03:38:57.421Z,93.27
2023-05-10T03:41:26.200Z,93.44
2023-05-10T03:43:53.503Z,91.02
2023-05-10T03:46:20.907Z,91.34
2023-05-10T03:48:48.348Z,90.34
2023-05-10T03:51:15.812Z,89.93
2023-05-10T03:53:43.134Z,89.87
2023-05-10T03:56:10.491Z,88.95
2023-05-10T03:58:37.968Z,88.07
2023-05-10T04:01:05.497Z,87.02
2023-05-10T04:03:33.811Z,86.64
2023-05-10T04:06:02.592Z,86.24
2023-05-10T04:08:30.700Z,85.41
2023-05-10T04:11:12.600Z,85.52
2023-05-10T04:13:39.980Z,85.64
2023-05-10T04:16:07.502Z,86.07
2023-05-10T04:18:34.987Z,86.23
2023-05-10T04:21:02.385Z,87.00
2023-05-10T04:23:30.105Z,86.92
2023-05-10T04:26:02.225Z,85.34
2023-05-10T04:28:29.992Z,86.08
2023-05-10T04:31:05.097Z,86.61
2023-05-10T04:33:34.288Z,85.55
2023-05-10T04:36:01.897Z,86.54
2023-05-10T04:38:30.305Z,86.03
2023-05-10T04:41:11.057Z,85.34
2023-05-10T04:43:39.338Z,84.05
2023-05-10T04:46:08.373Z,84.43
2023-05-10T04:48:36.329Z,80.53
2023-05-10T04:51:05.158Z,77.27
2023-05-10T04:53:33.198Z,73.55
2023-05-10T04:56:00.552Z,69.06
2023-05-10T04:58:27.897Z,68.49
2023-05-10T05:00:55.309Z,67.10
2023-05-10T05:03:23.376Z,63.92
2023-05-10T05:05:50.836Z,64.25
2023-05-10T05:08:18.412Z,63.52
2023-05-10T05:10:45.893Z,63.46
2023-05-10T05:13:13.828Z,62.70
2023-05-10T05:15:41.225Z,63.60
2023-05-10T05:18:08.990Z,62.36
2023-05-10T05:20:36.502Z,61.27
2023-05-10T05:23:03.965Z,61.80
2023-05-10T05:25:31.954Z,62.11
2023-05-10T05:27:59.334Z,62.35
2023-05-10T05:30:26.747Z,62.41
2023-05-10T05:32:54.365Z,61.65
2023-05-10T05:35:21.865Z,60.52
2023-05-10T05:37:49.228Z,59.79
2023-05-10T05:40:17.207Z,56.62
2023-05-10T05:42:44.731Z,54.05
2023-05-10T05:45:14.471Z,54.71
2023-05-10T05:47:42.363Z,56.03
2023-05-10T05:50:10.410Z,56.13
2023-05-10T05:52:38.169Z,57.13
2023-05-10T05:55:05.886Z,56.07
2023-05-10T05:57:33.466Z,56.67
2023-05-10T06:00:00.860Z,55.77
2023-05-10T06:02:28.275Z,55.16
2023-05-10T06:04:55.745Z,53.12
2023-05-10T06:07:23.074Z,54.03
2023-05-10T06:09:50.510Z,53.46
2023-05-10T06:12:18.133Z,53.75
2023-05-10T06:14:45.504Z,51.96
2023-05-10T06:17:12.908Z,52.36
2023-05-10T06:19:40.357Z,51.21
2023-05-10T06:22:07.913Z,51.81
2023-05-10T06:24:35.362Z,52.49
2023-05-10T06:27:03.219Z,51.28
2023-05-10T06:29:31.300Z,49.50
2023-05-10T06:31:58.860Z,52.15
2023-05-10T06:34:26.241Z,51.39
2023-05-10T06:36:53.975Z,52.35
2023-05-10T06:39:21.377Z,52.03
2023-05-10T06:41:48.833Z,51.59
2023-05-10T06:44:16.644Z,51.88
2023-05-10T06:46:44.170Z,51.59
2023-05-10T06:49:11.556Z,51.64
2023-05-10T06:51:38.966Z,50.12
2023-05-10T06:54:06.364Z,51.12
2023-05-10T06:56:33.827Z,51.07
2023-05-10T06:59:01.274Z,51.26
2023-05-10T07:01:28.736Z,50.64
2023-05-10T07:03:56.530Z,50.48
2023-05-10T07:06:33.015Z,50.71
2023-05-10T07:09:01.672Z,50.49
2023-05-10T07:11:29.237Z,51.78
2023-05-10T07:13:58.193Z,52.32
2023-05-10T07:16:25.657Z,51.37
2023-05-10T07:18:54.686Z,51.18
2023-05-10T07:21:25.066Z,49.48
2023-05-10T07:23:52.715Z,48.95
2023-05-10T07:26:20.506Z,50.67
2023-05-10T07:28:48.070Z,51.33
2023-05-10T07:31:15.588Z,50.82
2023-05-10T07:33:42.948Z,51.55
2023-05-10T07:36:10.359Z,51.21
2023-05-10T07:38:40.237Z,50.13
2023-05-10T07:41:08.297Z,50.57
2023-05-10T07:43:36.103Z,53.91
2023-05-10T07:46:03.780Z,54.74
2023-05-10T07:48:32.406Z,54.71
2023-05-10T07:50:59.849Z,56.71
2023-05-10T07:53:28.311Z,55.67
2023-05-10T07:55:59.246Z,53.00
2023-05-10T07:58:26.838Z,53.17
2023-05-10T08:00:54.263Z,52.63
2023-05-10T08:03:22.096Z,52.66
2023-05-10T08:05:49.633Z,54.33
2023-05-10T08:08:16.967Z,60.69
2023-05-10T08:10:44.965Z,57.44
2023-05-10T08:13:12.375Z,56.98
2023-05-10T08:15:39.889Z,55.40
2023-05-10T08:18:07.502Z,56.61
2023-05-10T08:20:34.956Z,59.63
2023-05-10T08:23:02.373Z,59.79
2023-05-10T08:25:29.880Z,62.71
2023-05-10T08:27:57.362Z,65.73
2023-05-10T08:30:24.990Z,70.07
2023-05-10T08:32:52.523Z,71.24
2023-05-10T08:35:19.998Z,73.67
2023-05-10T08:37:47.541Z,70.06
2023-05-10T08:40:16.506Z,69.55
2023-05-10T08:42:52.473Z,67.41
2023-05-10T08:45:21.334Z,65.98
2023-05-10T08:47:49.181Z,63.29
2023-05-10T08:50:21.222Z,61.90
2023-05-10T08:52:52.184Z,60.29
2023-05-10T08:55:19.896Z,58.99
2023-05-10T08:57:48.123Z,55.63
2023-05-10T09:00:16.454Z,53.33
2023-05-10T09:02:45.289Z,56.04
2023-05-10T09:05:13.702Z,52.10
2023-05-10T09:07:41.581Z,51.87
2023-05-10T09:10:10.533Z,51.97
2023-05-10T09:12:38.529Z,47.26
2023-05-10T09:15:08.126Z,45.17
2023-05-10T09:17:35.986Z,46.83
2023-05-10T09:20:08.006Z,47.08
2023-05-10T09:22:36.087Z,47.39
2023-05-10T09:25:12.130Z,49.25
2023-05-10T09:27:41.273Z,51.67
2023-05-10T09:30:09.795Z,53.47
2023-05-10T09:32:42.895Z,58.62
2023-05-10T09:35:13.486Z,61.24
2023-05-10T09:37:42.643Z,61.26
2023-05-10T09:40:15.432Z,57.07
2023-05-10T09:42:51.620Z,57.01
2023-05-10T09:45:19.395Z,60.20
2023-05-10T09:47:47.177Z,55.92
2023-05-10T09:50:14.684Z,51.33
2023-05-10T09:52:54.985Z,56.01
2023-05-10T09:55:24.555Z,49.61
2023-05-10T09:58:01.162Z,48.73
2023-05-10T10:00:29.410Z,46.50
2023-05-10T10:02:58.922Z,46.62
2023-05-10T10:05:30.752Z,44.11
2023-05-10T10:07:59.303Z,44.02
2023-05-10T10:10:27.821Z,45.03
2023-05-10T10:12:56.482Z,41.75
2023-05-10T10:15:25.071Z,43.70
2023-05-10T10:17:53.750Z,44.69
2023-05-10T10:20:23.609Z,44.37
2023-05-10T10:22:51.315Z,44.10
2023-05-10T10:25:22.861Z,45.16
2023-05-10T10:27:53.279Z,45.34
2023-05-10T10:30:27.236Z,45.27
2023-05-10T10:33:13.541Z,44.56
2023-05-10T10:35:48.149Z,45.59
2023-05-10T10:38:15.457Z,46.18
2023-05-10T10:40:43.175Z,45.38
2023-05-10T10:43:29.824Z,44.56
2023-05-10T10:46:16.526Z,45.35
2023-05-10T10:49:09.051Z,44.61
2023-05-10T10:51:40.241Z,44.90
2023-05-10T10:54:12.619Z,44.69
2023-05-10T10:56:39.968Z,42.89
2023-05-10T10:59:09.487Z,42.34
2023-05-10T11:01:37.362Z,40.54
2023-05-10T11:04:04.737Z,42.42
2023-05-10T11:06:37.166Z,42.10
2023-05-10T11:09:12.896Z,41.12
2023-05-10T11:11:56.163Z,39.83
2023-05-10T11:14:24.019Z,40.08
2023-05-10T11:16:51.638Z,40.08
2023-05-10T11:19:20.237Z,39.10
2023-05-10T11:22:14.752Z,38.42
2023-05-10T11:24:57.775Z,38.80
2023-05-10T11:27:25.427Z,36.39
2023-05-10T11:29:53.225Z,37.77
2023-05-10T11:32:20.912Z,37.56
2023-05-10T11:34:51.792Z,37.24
2023-05-10T11:37:19.381Z,36.42
2023-05-10T11:39:48.715Z,35.72
2023-05-10T11:42:16.143Z,37.17
2023-05-10T11:44:46.846Z,35.82
2023-05-10T11:47:14.292Z,36.71
2023-05-10T11:49:45.396Z,37.25
2023-05-10T11:52:12.917Z,38.70
2023-05-10T11:54:54.121Z,38.95
2023-05-10T11:57:26.812Z,39.19
2023-05-10T11:59:56.093Z,39.68
2023-05-10T12:02:23.831Z,38.09
2023-05-10T12:04:52.063Z,38.68
2023-05-10T12:07:19.502Z,37.50
2023-05-10T12:10:16.500Z,38.11
2023-05-10T12:12:51.203Z,37.08
2023-05-10T12:15:25.846Z,36.50
2023-05-10T12:17:53.324Z,34.01
2023-05-10T12:20:29.057Z,36.56
2023-05-10T12:23:00.313Z,38.40
2023-05-10T12:25:32.463Z,40.29
2023-05-10T12:28:03.723Z,43.02
2023-05-10T12:30:33.841Z,43.86
2023-05-10T12:33:09.645Z,45.34
2023-05-10T12:35:47.447Z,44.85
2023-05-10T12:38:39.241Z,44.84
2023-05-10T12:41:09.668Z,44.22
2023-05-10T12:43:38.698Z,43.90
2023-05-10T12:46:18.858Z,46.65
2023-05-10T12:48:48.476Z,46.14
2023-05-10T12:51:18.475Z,45.96
2023-05-10T12:53:49.355Z,47.67
2023-05-10T12:56:16.951Z,47.25
2023-05-10T12:58:49.185Z,45.73
2023-05-10T13:01:16.870Z,45.82
2023-05-10T13:03:44.662Z,46.52
2023-05-10T13:06:11.981Z,44.96
2023-05-10T13:08:39.626Z,44.28
2023-05-10T13:11:07.414Z,43.47
2023-05-10T13:13:34.810Z,43.43
2023-05-10T13:16:02.212Z,44.14
2023-05-10T13:18:29.694Z,42.01
2023-05-10T13:20:57.187Z,42.92
2023-05-10T13:23:24.566Z,41.29
2023-05-10T13:25:51.947Z,41.55
2023-05-10T13:28:19.475Z,40.10
2023-05-10T13:30:46.915Z,39.51
2023-05-10T13:33:14.300Z,38.01
2023-05-10T13:35:41.630Z,38.77
2023-05-10T13:38:09.242Z,39.02
2023-05-10T13:40:37.071Z,38.87
2023-05-10T13:43:04.488Z,39.78
2023-05-10T13:45:32.032Z,38.90
2023-05-10T13:47:59.466Z,40.32
2023-05-10T13:50:26.954Z,39.45
2023-05-10T13:52:54.348Z,40.65
2023-05-10T13:55:22.031Z,40.64
2023-05-10T13:57:49.574Z,40.88
2023-05-10T14:00:17.596Z,41.41
2023-05-10T14:02:45.288Z,44.83
2023-05-10T14:05:14.012Z,46.81
2023-05-10T14:07:42.898Z,48.51
2023-05-10T14:10:10.741Z,49.01
2023-05-10T14:12:38.297Z,50.17
2023-05-10T14:15:07.930Z,52.18
2023-05-10T14:17:35.851Z,51.41
2023-05-10T14:20:04.852Z,50.61
2023-05-10T14:22:33.659Z,50.31
2023-05-10T14:25:01.644Z,50.56
2023-05-10T14:27:29.397Z,50.65
2023-05-10T14:29:56.777Z,50.47
2023-05-10T14:32:24.215Z,51.90
2023-05-10T14:34:51.549Z,50.36
2023-05-10T14:37:19.004Z,50.50
2023-05-10T14:39:46.421Z,50.72
2023-05-10T14:42:13.748Z,50.55
2023-05-10T14:44:42.253Z,52.51
2023-05-10T14:47:11.791Z,50.84
2023-05-10T14:49:39.477Z,52.74
2023-05-10T14:55:00.148Z,50.65
2023-05-10T14:57:30.581Z,48.68
2023-05-10T14:59:58.132Z,46.16
2023-05-10T15:02:26.547Z,46.12
2023-05-10T15:04:54.609Z,48.09
2023-05-10T15:07:22.386Z,48.20
2023-05-10T15:09:50.003Z,47.07
2023-05-10T15:12:17.424Z,47.45
2023-05-10T15:14:45.392Z,46.84
2023-05-10T15:17:12.906Z,47.46
2023-05-10T15:19:40.282Z,46.04
2023-05-10T15:22:07.616Z,44.56
2023-05-10T15:24:35.346Z,44.60
2023-05-10T15:27:02.818Z,44.04
2023-05-10T15:29:30.749Z,44.74
2023-05-10T15:31:58.073Z,44.65
2023-05-10T15:34:25.464Z,44.69
2023-05-10T15:36:52.973Z,44.53
2023-05-10T15:39:20.373Z,45.02
2023-05-10T15:41:48.282Z,44.69
2023-05-10T15:44:15.864Z,44.95
2023-05-10T15:46:43.222Z,45.90
2023-05-10T15:49:10.604Z,46.03
2023-05-10T15:51:37.976Z,46.38
2023-05-10T15:54:08.278Z,44.39
2023-05-10T15:56:36.231Z,44.27
2023-05-10T15:59:04.143Z,44.95
2023-05-10T16:01:32.650Z,45.02
2023-05-10T16:04:01.036Z,45.66
2023-05-10T16:06:28.395Z,46.29
2023-05-10T16:08:55.896Z,46.17
2023-05-10T16:11:23.422Z,45.83
2023-05-10T16:13:50.709Z,47.38
2023-05-10T16:16:18.215Z,46.43
2023-05-10T16:18:47.736Z,47.31
2023-05-10T16:21:15.122Z,47.89
2023-05-10T16:23:43.341Z,48.62
2023-05-10T16:26:10.692Z,48.49
2023-05-10T16:28:39.828Z,50.92
2023-05-10T16:31:07.289Z,49.94
2023-05-10T16:33:35.028Z,49.85
2023-05-10T16:36:02.733Z,49.57
2023-05-10T16:38:30.683Z,51.24
2023-05-10T16:40:58.150Z,50.23
2023-05-10T16:43:26.225Z,51.92
2023-05-10T16:45:53.781Z,50.48
2023-05-10T16:48:21.276Z,51.89
2023-05-10T16:50:48.788Z,54.57
2023-05-10T16:53:16.938Z,55.55
2023-05-10T16:55:45.085Z,56.76
2023-05-10T16:58:12.514Z,57.01
2023-05-10T17:00:40.145Z,57.75
2023-05-10T17:03:07.800Z,58.22
2023-05-10T17:05:35.617Z,59.97
2023-05-10T17:08:03.200Z,59.99
2023-05-10T17:10:30.772Z,61.06
2023-05-10T17:12:58.175Z,62.49
2023-05-10T17:15:25.568Z,61.50
2023-05-10T17:17:53.402Z,61.30
2023-05-10T17:20:21.008Z,62.80
2023-05-10T17:22:48.680Z,63.26
2023-05-10T17:25:16.376Z,63.89
2023-05-10T17:27:44.114Z,65.18
2023-05-10T17:30:11.977Z,65.70
2023-05-10T17:32:39.544Z,66.47
2023-05-10T17:35:07.385Z,68.51
2023-05-10T17:37:34.902Z,68.16
2023-05-10T17:40:03.944Z,65.75
2023-05-10T17:42:32.650Z,63.60
2023-05-10T17:45:00.017Z,64.79
2023-05-10T17:47:28.002Z,64.50
2023-05-10T17:49:55.440Z,66.47
2023-05-10T17:52:22.808Z,68.63
2023-05-10T17:54:50.190Z,69.55
2023-05-10T17:57:17.509Z,69.97
2023-05-10T17:59:44.992Z,72.09
2023-05-10T18:02:14.067Z,72.55
2023-05-10T18:04:41.500Z,71.41
2023-05-10T18:07:09.826Z,72.11
2023-05-10T18:09:37.209Z,70.80
2023-05-10T18:12:05.086Z,70.04
2023-05-10T18:14:40.611Z,71.60
2023-05-10T18:17:09.957Z,74.73
2023-05-10T18:19:37.660Z,74.57
2023-05-10T18:22:05.556Z,75.57
2023-05-10T18:24:39.699Z,75.59
2023-05-10T18:27:09.014Z,77.29
2023-05-10T18:29:37.208Z,78.29
2023-05-10T18:32:04.955Z,78.60
2023-05-10T18:34:32.376Z,79.27
2023-05-10T18:36:59.971Z,79.84
2023-05-10T18:39:27.468Z,76.31
2023-05-10T18:41:54.931Z,77.61
2023-05-10T18:44:26.007Z,77.28
2023-05-10T18:46:54.352Z,79.79
2023-05-10T18:49:21.772Z,77.94
2023-05-10T18:51:49.166Z,79.22
2023-05-10T18:54:16.916Z,79.71
2023-05-10T18:56:45.368Z,79.86
2023-05-10T18:59:13.161Z,79.46
2023-05-10T19:01:41.474Z,82.34
2023-05-10T19:04:09.155Z,81.17
2023-05-10T19:06:36.655Z,80.98
2023-05-10T19:09:04.385Z,78.78
2023-05-10T19:11:34.107Z,78.71
2023-05-10T19:14:02.463Z,79.06
2023-05-10T19:16:30.680Z,81.89
2023-05-10T19:18:58.332Z,84.42
2023-05-10T19:21:26.119Z,85.46
2023-05-10T19:23:53.777Z,84.20
2023-05-10T19:26:23.379Z,82.81
2023-05-10T19:28:52.158Z,83.35
2023-05-10T19:31:20.609Z,82.56
2023-05-10T19:33:47.924Z,82.76
2023-05-10T19:36:15.559Z,79.70
2023-05-10T19:38:43.059Z,82.42
2023-05-10T19:41:11.458Z,82.96
2023-05-10T19:43:39.905Z,84.06
2023-05-10T19:46:09.053Z,84.72
2023-05-10T19:48:36.617Z,84.69
2023-05-10T19:51:07.592Z,81.50
2023-05-10T19:53:36.936Z,84.13
2023-05-10T19:56:06.595Z,81.48
2023-05-10T19:58:34.534Z,83.25
2023-05-10T20:01:02.726Z,82.99
2023-05-10T20:03:30.734Z,83.41
2023-05-10T20:05:58.207Z,85.37
2023-05-10T20:08:25.847Z,84.37
2023-05-10T20:10:53.391Z,81.64
2023-05-10T20:13:21.169Z,83.73
2023-05-10T20:15:49.104Z,84.05
2023-05-10T20:18:17.116Z,82.59
2023-05-10T20:20:44.865Z,81.59
2023-05-10T20:23:12.463Z,80.59
2023-05-10T20:25:40.372Z,80.94
2023-05-10T20:28:08.594Z,81.88
2023-05-10T20:30:36.423Z,83.16
2023-05-10T20:33:04.458Z,82.87
2023-05-10T20:35:33.079Z,84.12
2023-05-10T20:38:02.210Z,83.38
2023-05-10T20:40:29.773Z,80.24
2023-05-10T20:42:57.284Z,80.10
2023-05-10T20:45:24.889Z,81.17
2023-05-10T20:47:53.574Z,81.73
2023-05-10T20:50:21.242Z,82.59
2023-05-10T20:52:51.066Z,82.95
2023-05-10T20:55:19.192Z,83.02
2023-05-10T20:57:47.200Z,82.19
2023-05-10T21:00:15.454Z,78.93
2023-05-10T21:02:45.076Z,77.18
2023-05-10T21:05:12.834Z,79.19
2023-05-10T21:07:40.953Z,76.85
2023-05-10T21:10:10.939Z,77.58
2023-05-10T21:12:38.860Z,77.08
2023-05-10T21:15:06.776Z,76.88
2023-05-10T21:17:34.860Z,78.09
2023-05-10T21:20:02.319Z,78.05
2023-05-10T21:22:30.572Z,76.72
2023-05-10T21:24:57.960Z,77.75
2023-05-10T21:27:25.352Z,78.90
2023-05-10T21:29:53.234Z,77.58
2023-05-10T21:32:20.653Z,78.36
2023-05-10T21:34:48.145Z,78.30
2023-05-10T21:37:17.449Z,77.51
2023-05-10T21:39:44.969Z,77.43
2023-05-10T21:42:12.452Z,78.01
2023-05-10T21:44:39.868Z,79.40
2023-05-10T21:47:07.276Z,81.40
2023-05-10T21:49:35.178Z,82.96
2023-05-10T21:52:02.717Z,82.84
2023-05-10T21:54:30.234Z,83.86
2023-05-10T21:56:58.156Z,84.90
2023-05-10T21:59:25.678Z,83.34
2023-05-10T22:01:53.063Z,84.68
2023-05-10T22:04:20.484Z,82.93
2023-05-10T22:06:49.138Z,79.04
2023-05-10T22:09:16.823Z,81.07
2023-05-10T22:11:44.279Z,79.16
2023-05-10T22:14:11.758Z,78.02
2023-05-10T22:16:39.145Z,78.18
2023-05-10T22:19:06.724Z,78.50
2023-05-10T22:21:34.429Z,78.92
2023-05-10T22:24:01.914Z,75.94
2023-05-10T22:26:29.451Z,78.58
2023-05-10T22:28:56.825Z,78.52
2023-05-10T22:31:24.354Z,77.55
2023-05-10T22:33:51.721Z,79.06
2023-05-10T22:36:19.074Z,80.80
2023-05-10T22:38:46.640Z,79.12
2023-05-10T22:41:14.166Z,77.96
2023-05-10T22:43:42.078Z,80.01
2023-05-10T22:46:09.510Z,79.63
2023-05-10T22:48:37.232Z,78.58
2023-05-10T22:51:04.888Z,78.06
2023-05-10T22:53:32.628Z,77.74
2023-05-10T22:56:00.032Z,78.62
2023-05-10T22:58:27.575Z,79.21
2023-05-10T23:00:55.752Z,80.01
2023-05-10T23:03:23.624Z,80.02
2023-05-10T23:05:51.198Z,81.29
2023-05-10T23:08:18.922Z,80.13
2023-05-10T23:10:47.104Z,78.57
2023-05-10T23:13:14.559Z,79.43
2023-05-10T23:15:43.632Z,77.26
2023-05-10T23:18:11.104Z,77.88
2023-05-10T23:20:38.868Z,77.55
2023-05-10T23:23:07.000Z,78.37
2023-05-10T23:25:36.028Z,78.18
2023-05-10T23:28:04.326Z,77.94
2023-05-10T23:30:31.781Z,78.21
2023-05-10T23:32:59.550Z,78.57
2023-05-10T23:35:27.071Z,79.97
2023-05-10T23:37:54.680Z,79.72
2023-05-10T23:40:22.189Z,79.02
2023-05-10T23:42:49.631Z,79.02
2023-05-10T23:45:17.152Z,78.70
2023-05-10T23:47:44.526Z,78.84
2023-05-10T23:50:12.054Z,79.34
2023-05-10T23:52:39.642Z,79.49
2023-05-10T23:55:07.653Z,77.64
2023-05-10T23:57:35.759Z,77.46
